sensor_id;sensor_type;location;lat;lon;timestamp;P1;durP1;ratioP1;P2;durP2;ratioP2
17658;SDS011;8948;51.534;8.262;2022-10-03T00:31:34;25.70;;;4.47;;
17658;SDS011;8948;51.534;8.262;2022-10-03T00:41:58;22.30;;;3.13;;
17658;SDS011;8948;51.534;8.262;2022-10-03T00:57:57;20.17;;;3.70;;
17658;SDS011;8948;51.534;8.262;2022-10-03T01:03:17;26.37;;;3.97;;
17658;SDS011;8948;51.534;8.262;2022-10-03T01:08:25;26.87;;;4.03;;
17658;SDS011;8948;51.534;8.262;2022-10-03T01:29:51;18.00;;;3.80;;
17658;SDS011;8948;51.534;8.262;2022-10-03T01:46:11;26.70;;;4.77;;
17658;SDS011;8948;51.534;8.262;2022-10-03T02:35:08;26.93;;;4.60;;
17658;SDS011;8948;51.534;8.262;2022-10-03T02:51:20;18.80;;;4.80;;
17658;SDS011;8948;51.534;8.262;2022-10-03T02:56:42;30.83;;;5.77;;
17658;SDS011;8948;51.534;8.262;2022-10-03T03:39:34;21.07;;;4.07;;
17658;SDS011;8948;51.534;8.262;2022-10-03T03:50:44;30.23;;;5.50;;
17658;SDS011;8948;51.534;8.262;2022-10-03T04:01:22;18.53;;;4.40;;
17658;SDS011;8948;51.534;8.262;2022-10-03T04:17:40;24.17;;;5.20;;
17658;SDS011;8948;51.534;8.262;2022-10-03T04:44:01;25.23;;;4.10;;
17658;SDS011;8948;51.534;8.262;2022-10-03T04:49:22;21.13;;;3.93;;
17658;SDS011;8948;51.534;8.262;2022-10-03T04:54:46;23.57;;;4.63;;
17658;SDS011;8948;51.534;8.262;2022-10-03T05:00:11;20.30;;;3.40;;
17658;SDS011;8948;51.534;8.262;2022-10-03T05:48:08;26.07;;;5.23;;
17658;SDS011;8948;51.534;8.262;2022-10-03T05:58:56;24.10;;;5.43;;
17658;SDS011;8948;51.534;8.262;2022-10-03T06:20:01;28.27;;;5.63;;
17658;SDS011;8948;51.534;8.262;2022-10-03T08:24:14;21.77;;;3.97;;
17658;SDS011;8948;51.534;8.262;2022-10-03T08:29:22;30.70;;;4.57;;
17658;SDS011;8948;51.534;8.262;2022-10-03T08:34:35;21.77;;;4.33;;
17658;SDS011;8948;51.534;8.262;2022-10-03T08:51:11;17.50;;;3.53;;
17658;SDS011;8948;51.534;8.262;2022-10-03T10:07:23;22.37;;;4.53;;
17658;SDS011;8948;51.534;8.262;2022-10-03T10:51:00;16.52;;;3.08;;
17658;SDS011;8948;51.534;8.262;2022-10-03T10:56:51;20.98;;;3.25;;
17658;SDS011;8948;51.534;8.262;2022-10-03T11:34:50;13.63;;;3.17;;
17658;SDS011;8948;51.534;8.262;2022-10-03T11:40:10;15.23;;;3.08;;
17658;SDS011;8948;51.534;8.262;2022-10-03T11:45:19;11.90;;;2.38;;
17658;SDS011;8948;51.534;8.262;2022-10-03T11:50:32;13.43;;;2.38;;
17658;SDS011;8948;51.534;8.262;2022-10-03T12:17:36;16.23;;;3.78;;
17658;SDS011;8948;51.534;8.262;2022-10-03T12:28:22;22.55;;;6.75;;
17658;SDS011;8948;51.534;8.262;2022-10-03T12:39:02;16.05;;;3.95;;
17658;SDS011;8948;51.534;8.262;2022-10-03T12:49:42;15.07;;;5.30;;
17658;SDS011;8948;51.534;8.262;2022-10-03T13:05:38;11.15;;;2.00;;
17658;SDS011;8948;51.534;8.262;2022-10-03T13:10:56;8.35;;;2.00;;
17658;SDS011;8948;51.534;8.262;2022-10-03T13:21:49;13.23;;;2.10;;
17658;SDS011;8948;51.534;8.262;2022-10-03T13:32:35;17.20;;;3.00;;
17658;SDS011;8948;51.534;8.262;2022-10-03T13:43:10;8.63;;;2.30;;
17658;SDS011;8948;51.534;8.262;2022-10-03T13:48:17;10.93;;;2.47;;
17658;SDS011;8948;51.534;8.262;2022-10-03T14:19:29;8.05;;;2.20;;
17658;SDS011;8948;51.534;8.262;2022-10-03T14:35:23;10.05;;;2.80;;
17658;SDS011;8948;51.534;8.262;2022-10-03T14:40:40;14.15;;;2.45;;
17658;SDS011;8948;51.534;8.262;2022-10-03T14:45:47;8.75;;;2.53;;
17658;SDS011;8948;51.534;8.262;2022-10-03T14:50:52;13.38;;;2.38;;
17658;SDS011;8948;51.534;8.262;2022-10-03T14:56:09;11.55;;;2.60;;
17658;SDS011;8948;51.534;8.262;2022-10-03T15:01:12;6.72;;;1.98;;
17658;SDS011;8948;51.534;8.262;2022-10-03T15:06:19;12.85;;;2.40;;
17658;SDS011;8948;51.534;8.262;2022-10-03T15:11:44;9.55;;;2.13;;
17658;SDS011;8948;51.534;8.262;2022-10-03T15:16:51;14.90;;;2.25;;
17658;SDS011;8948;51.534;8.262;2022-10-03T15:21:53;14.07;;;2.28;;
17658;SDS011;8948;51.534;8.262;2022-10-03T15:26:57;7.63;;;2.20;;
17658;SDS011;8948;51.534;8.262;2022-10-03T15:32:02;9.52;;;2.33;;
17658;SDS011;8948;51.534;8.262;2022-10-03T15:37:12;10.68;;;2.33;;
17658;SDS011;8948;51.534;8.262;2022-10-03T15:42:26;14.90;;;2.50;;
17658;SDS011;8948;51.534;8.262;2022-10-03T15:47:30;10.52;;;2.35;;
17658;SDS011;8948;51.534;8.262;2022-10-03T15:52:40;7.22;;;2.58;;
17658;SDS011;8948;51.534;8.262;2022-10-03T15:57:58;9.20;;;2.35;;
17658;SDS011;8948;51.534;8.262;2022-10-03T16:03:15;9.77;;;2.72;;
17658;SDS011;8948;51.534;8.262;2022-10-03T16:08:21;6.70;;;2.08;;
17658;SDS011;8948;51.534;8.262;2022-10-03T16:13:35;8.43;;;2.05;;
17658;SDS011;8948;51.534;8.262;2022-10-03T16:18:55;9.80;;;2.30;;
17658;SDS011;8948;51.534;8.262;2022-10-03T16:24:35;8.52;;;1.92;;
17658;SDS011;8948;51.534;8.262;2022-10-03T16:29:43;10.25;;;2.28;;
17658;SDS011;8948;51.534;8.262;2022-10-03T16:34:53;11.98;;;2.28;;
17658;SDS011;8948;51.534;8.262;2022-10-03T16:40:00;9.93;;;1.98;;
17658;SDS011;8948;51.534;8.262;2022-10-03T16:45:02;7.28;;;1.83;;
17658;SDS011;8948;51.534;8.262;2022-10-03T16:50:18;9.38;;;2.05;;
17658;SDS011;8948;51.534;8.262;2022-10-03T16:55:25;14.60;;;6.43;;
17658;SDS011;8948;51.534;8.262;2022-10-03T17:00:48;15.02;;;3.28;;
17658;SDS011;8948;51.534;8.262;2022-10-03T17:05:52;7.03;;;1.88;;
17658;SDS011;8948;51.534;8.262;2022-10-03T17:10:57;12.80;;;2.47;;
17658;SDS011;8948;51.534;8.262;2022-10-03T17:16:02;7.78;;;1.98;;
17658;SDS011;8948;51.534;8.262;2022-10-03T17:21:24;6.88;;;1.88;;
17658;SDS011;8948;51.534;8.262;2022-10-03T17:26:29;5.15;;;1.73;;
17658;SDS011;8948;51.534;8.262;2022-10-03T17:31:40;6.38;;;2.13;;
17658;SDS011;8948;51.534;8.262;2022-10-03T17:42:17;4.95;;;1.95;;
17658;SDS011;8948;51.534;8.262;2022-10-03T17:47:46;10.73;;;2.60;;
17658;SDS011;8948;51.534;8.262;2022-10-03T17:52:53;7.50;;;2.22;;
17658;SDS011;8948;51.534;8.262;2022-10-03T17:57:55;10.25;;;2.35;;
17658;SDS011;8948;51.534;8.262;2022-10-03T18:08:28;9.52;;;3.33;;
17658;SDS011;8948;51.534;8.262;2022-10-03T18:13:35;6.18;;;2.47;;
17658;SDS011;8948;51.534;8.262;2022-10-03T18:24:44;10.13;;;2.45;;
17658;SDS011;8948;51.534;8.262;2022-10-03T18:29:45;14.10;;;2.78;;
17658;SDS011;8948;51.534;8.262;2022-10-03T18:40:04;10.52;;;2.63;;
17658;SDS011;8948;51.534;8.262;2022-10-03T18:45:54;9.13;;;3.20;;
17658;SDS011;8948;51.534;8.262;2022-10-03T18:50:57;8.43;;;2.50;;
17658;SDS011;8948;51.534;8.262;2022-10-03T18:56:12;8.90;;;2.70;;
17658;SDS011;8948;51.534;8.262;2022-10-03T19:01:27;9.02;;;2.65;;
17658;SDS011;8948;51.534;8.262;2022-10-03T19:06:41;9.93;;;2.73;;
17658;SDS011;8948;51.534;8.262;2022-10-03T19:11:46;17.00;;;3.40;;
17658;SDS011;8948;51.534;8.262;2022-10-03T19:22:38;7.20;;;2.90;;
17658;SDS011;8948;51.534;8.262;2022-10-03T19:27:44;16.20;;;6.90;;
17658;SDS011;8948;51.534;8.262;2022-10-03T19:38:02;12.17;;;5.53;;
17658;SDS011;8948;51.534;8.262;2022-10-03T19:43:23;9.57;;;3.93;;
17658;SDS011;8948;51.534;8.262;2022-10-03T19:48:33;14.90;;;3.40;;
17658;SDS011;8948;51.534;8.262;2022-10-03T19:53:39;12.37;;;3.93;;
17658;SDS011;8948;51.534;8.262;2022-10-03T19:58:45;16.33;;;3.93;;
17658;SDS011;8948;51.534;8.262;2022-10-03T20:03:47;7.73;;;3.43;;
17658;SDS011;8948;51.534;8.262;2022-10-03T20:08:54;11.70;;;3.53;;
17658;SDS011;8948;51.534;8.262;2022-10-03T20:14:00;11.83;;;3.57;;
17658;SDS011;8948;51.534;8.262;2022-10-03T20:19:06;13.90;;;3.40;;
17658;SDS011;8948;51.534;8.262;2022-10-03T20:24:18;13.57;;;3.00;;
17658;SDS011;8948;51.534;8.262;2022-10-03T20:29:32;7.60;;;3.20;;
17658;SDS011;8948;51.534;8.262;2022-10-03T20:34:48;14.13;;;3.57;;
17658;SDS011;8948;51.534;8.262;2022-10-03T20:39:51;15.60;;;3.17;;
17658;SDS011;8948;51.534;8.262;2022-10-03T20:50:36;7.23;;;2.83;;
17658;SDS011;8948;51.534;8.262;2022-10-03T20:55:46;10.10;;;3.00;;
17658;SDS011;8948;51.534;8.262;2022-10-03T21:00:52;10.57;;;3.17;;
17658;SDS011;8948;51.534;8.262;2022-10-03T21:06:01;14.03;;;3.27;;
17658;SDS011;8948;51.534;8.262;2022-10-03T21:11:13;5.03;;;2.97;;
17658;SDS011;8948;51.534;8.262;2022-10-03T21:16:21;8.57;;;2.80;;
17658;SDS011;8948;51.534;8.262;2022-10-03T21:21:26;8.47;;;3.40;;
17658;SDS011;8948;51.534;8.262;2022-10-03T21:26:40;8.37;;;3.30;;
17658;SDS011;8948;51.534;8.262;2022-10-03T21:37:15;7.67;;;3.17;;
17658;SDS011;8948;51.534;8.262;2022-10-03T21:42:31;9.70;;;3.40;;
17658;SDS011;8948;51.534;8.262;2022-10-03T21:47:45;9.70;;;3.10;;
17658;SDS011;8948;51.534;8.262;2022-10-03T21:52:57;11.93;;;3.00;;
17658;SDS011;8948;51.534;8.262;2022-10-03T21:58:25;10.83;;;3.00;;
17658;SDS011;8948;51.534;8.262;2022-10-03T22:03:38;13.17;;;3.30;;
17658;SDS011;8948;51.534;8.262;2022-10-03T22:08:42;8.23;;;2.80;;
17658;SDS011;8948;51.534;8.262;2022-10-03T22:13:51;7.77;;;2.40;;
17658;SDS011;8948;51.534;8.262;2022-10-03T22:19:12;5.63;;;2.60;;
17658;SDS011;8948;51.534;8.262;2022-10-03T22:24:40;10.97;;;3.13;;
17658;SDS011;8948;51.534;8.262;2022-10-03T22:30:00;10.23;;;3.00;;
17658;SDS011;8948;51.534;8.262;2022-10-03T22:35:09;9.67;;;2.63;;
17658;SDS011;8948;51.534;8.262;2022-10-03T22:40:37;6.73;;;3.00;;
17658;SDS011;8948;51.534;8.262;2022-10-03T22:45:40;10.33;;;3.27;;
17658;SDS011;8948;51.534;8.262;2022-10-03T22:50:43;10.83;;;2.80;;
17658;SDS011;8948;51.534;8.262;2022-10-03T22:55:46;8.93;;;2.67;;
17658;SDS011;8948;51.534;8.262;2022-10-03T23:00:50;10.50;;;3.20;;
17658;SDS011;8948;51.534;8.262;2022-10-03T23:11:22;5.50;;;2.70;;
17658;SDS011;8948;51.534;8.262;2022-10-03T23:21:33;7.33;;;2.70;;
17658;SDS011;8948;51.534;8.262;2022-10-03T23:26:54;9.07;;;2.57;;
17658;SDS011;8948;51.534;8.262;2022-10-03T23:42:17;9.87;;;2.27;;
17658;SDS011;8948;51.534;8.262;2022-10-03T23:52:54;9.00;;;2.57;;
17658;SDS011;8948;51.534;8.262;2022-10-03T23:57:56;10.50;;;2.80;;
